sensor_id;sensor_type;location;lat;lon;timestamp;pressure;altitude;pressure_sealevel;temperature;humidity
40730;BME280;26418;50.070;8.436;2024-01-30T00:01:35;101368.16;;;2.43;100.00
40730;BME280;26418;50.070;8.436;2024-01-30T00:04:01;101378.22;;;2.41;100.00
40730;BME280;26418;50.070;8.436;2024-01-30T00:06:26;101377.84;;;2.38;100.00
40730;BME280;26418;50.070;8.436;2024-01-30T00:08:53;101375.78;;;2.33;100.00
40730;BME280;26418;50.070;8.436;2024-01-30T00:11:18;101384.41;;;2.35;100.00
40730;BME280;26418;50.070;8.436;2024-01-30T00:13:44;101372.72;;;2.29;100.00
40730;BME280;26418;50.070;8.436;2024-01-30T00:16:20;101370.88;;;2.30;100.00
40730;BME280;26418;50.070;8.436;2024-01-30T00:18:46;101364.31;;;2.26;100.00
40730;BME280;26418;50.070;8.436;2024-01-30T00:21:11;101373.16;;;2.26;100.00
40730;BME280;26418;50.070;8.436;2024-01-30T00:23:37;101375.59;;;2.28;100.00
40730;BME280;26418;50.070;8.436;2024-01-30T00:26:02;101377.66;;;2.32;100.00
40730;BME280;26418;50.070;8.436;2024-01-30T00:28:28;101378.69;;;2.31;100.00
40730;BME280;26418;50.070;8.436;2024-01-30T00:30:53;101363.91;;;2.22;100.00
40730;BME280;26418;50.070;8.436;2024-01-30T00:33:19;101376.00;;;2.31;100.00
40730;BME280;26418;50.070;8.436;2024-01-30T00:35:45;101366.56;;;2.29;100.00
40730;BME280;26418;50.070;8.436;2024-01-30T00:38:10;101371.06;;;2.28;100.00
40730;BME280;26418;50.070;8.436;2024-01-30T00:40:36;101366.34;;;2.30;100.00
40730;BME280;26418;50.070;8.436;2024-01-30T00:43:01;101370.25;;;2.28;100.00
40730;BME280;26418;50.070;8.436;2024-01-30T00:45:27;101365.94;;;2.27;100.00
40730;BME280;26418;50.070;8.436;2024-01-30T00:47:52;101355.88;;;2.29;100.00
40730;BME280;26418;50.070;8.436;2024-01-30T00:50:18;101364.50;;;2.31;100.00
40730;BME280;26418;50.070;8.436;2024-01-30T00:52:44;101367.59;;;2.34;100.00
40730;BME280;26418;50.070;8.436;2024-01-30T00:55:10;101380.50;;;2.31;100.00
40730;BME280;26418;50.070;8.436;2024-01-30T00:57:36;101365.16;;;2.26;100.00
40730;BME280;26418;50.070;8.436;2024-01-30T01:00:03;101374.19;;;2.25;100.00
40730;BME280;26418;50.070;8.436;2024-01-30T01:02:28;101378.28;;;2.21;100.00
40730;BME280;26418;50.070;8.436;2024-01-30T01:04:54;101368.44;;;2.08;100.00
40730;BME280;26418;50.070;8.436;2024-01-30T01:07:19;101374.63;;;2.09;100.00
40730;BME280;26418;50.070;8.436;2024-01-30T01:09:45;101378.53;;;1.99;100.00
40730;BME280;26418;50.070;8.436;2024-01-30T01:12:10;101383.03;;;1.99;100.00
40730;BME280;26418;50.070;8.436;2024-01-30T01:14:36;101389.59;;;1.96;100.00
40730;BME280;26418;50.070;8.436;2024-01-30T01:17:01;101393.91;;;1.97;100.00
40730;BME280;26418;50.070;8.436;2024-01-30T01:19:27;101384.25;;;1.89;100.00
40730;BME280;26418;50.070;8.436;2024-01-30T01:21:53;101376.88;;;1.92;100.00
40730;BME280;26418;50.070;8.436;2024-01-30T01:24:18;101383.06;;;1.92;100.00
40730;BME280;26418;50.070;8.436;2024-01-30T01:26:44;101377.72;;;1.85;100.00
40730;BME280;26418;50.070;8.436;2024-01-30T01:29:09;101383.44;;;1.89;100.00
40730;BME280;26418;50.070;8.436;2024-01-30T01:31:37;101381.19;;;1.86;100.00
40730;BME280;26418;50.070;8.436;2024-01-30T01:34:09;101383.25;;;1.84;100.00
40730;BME280;26418;50.070;8.436;2024-01-30T01:36:35;101378.31;;;1.81;100.00
40730;BME280;26418;50.070;8.436;2024-01-30T01:39:01;101381.41;;;1.84;100.00
40730;BME280;26418;50.070;8.436;2024-01-30T01:41:30;101368.69;;;1.80;100.00
40730;BME280;26418;50.070;8.436;2024-01-30T01:43:56;101371.75;;;1.83;100.00
40730;BME280;26418;50.070;8.436;2024-01-30T01:46:22;101372.38;;;1.85;100.00
40730;BME280;26418;50.070;8.436;2024-01-30T01:48:48;101369.69;;;1.85;100.00
40730;BME280;26418;50.070;8.436;2024-01-30T01:51:14;101366.63;;;1.82;100.00
40730;BME280;26418;50.070;8.436;2024-01-30T01:53:41;101365.59;;;1.83;100.00
40730;BME280;26418;50.070;8.436;2024-01-30T01:56:23;101371.56;;;1.78;100.00
40730;BME280;26418;50.070;8.436;2024-01-30T01:58:50;101372.16;;;1.73;100.00
40730;BME280;26418;50.070;8.436;2024-01-30T02:01:18;101363.53;;;1.71;100.00
40730;BME280;26418;50.070;8.436;2024-01-30T02:03:46;101363.94;;;1.68;100.00
40730;BME280;26418;50.070;8.436;2024-01-30T02:06:13;101367.25;;;1.70;100.00
40730;BME280;26418;50.070;8.436;2024-01-30T02:08:39;101363.53;;;1.71;100.00
40730;BME280;26418;50.070;8.436;2024-01-30T02:11:05;101355.75;;;1.63;100.00
40730;BME280;26418;50.070;8.436;2024-01-30T02:13:30;101365.19;;;1.66;100.00
40730;BME280;26418;50.070;8.436;2024-01-30T02:15:56;101356.78;;;1.62;100.00
40730;BME280;26418;50.070;8.436;2024-01-30T02:18:22;101355.56;;;1.58;100.00
40730;BME280;26418;50.070;8.436;2024-01-30T02:20:48;101359.44;;;1.62;100.00
40730;BME280;26418;50.070;8.436;2024-01-30T02:23:16;101358.81;;;1.60;100.00
40730;BME280;26418;50.070;8.436;2024-01-30T02:25:42;101353.31;;;1.62;100.00
40730;BME280;26418;50.070;8.436;2024-01-30T02:28:10;101360.47;;;1.61;100.00
40730;BME280;26418;50.070;8.436;2024-01-30T02:30:37;101361.47;;;1.60;100.00
40730;BME280;26418;50.070;8.436;2024-01-30T02:33:03;101360.47;;;1.54;100.00
40730;BME280;26418;50.070;8.436;2024-01-30T02:35:28;101364.97;;;1.54;100.00
40730;BME280;26418;50.070;8.436;2024-01-30T02:37:54;101364.56;;;1.50;100.00
40730;BME280;26418;50.070;8.436;2024-01-30T02:40:19;101360.47;;;1.48;100.00
40730;BME280;26418;50.070;8.436;2024-01-30T02:42:45;101353.28;;;1.41;100.00
40730;BME280;26418;50.070;8.436;2024-01-30T02:45:11;101364.38;;;1.45;100.00
40730;BME280;26418;50.070;8.436;2024-01-30T02:47:37;101349.78;;;1.41;100.00
40730;BME280;26418;50.070;8.436;2024-01-30T02:50:03;101360.88;;;1.45;100.00
40730;BME280;26418;50.070;8.436;2024-01-30T02:52:28;101367.22;;;1.44;100.00
40730;BME280;26418;50.070;8.436;2024-01-30T02:54:54;101363.97;;;1.41;100.00
40730;BME280;26418;50.070;8.436;2024-01-30T02:57:19;101353.69;;;1.38;100.00
40730;BME280;26418;50.070;8.436;2024-01-30T02:59:45;101352.88;;;1.38;100.00
40730;BME280;26418;50.070;8.436;2024-01-30T03:02:10;101351.41;;;1.35;100.00
40730;BME280;26418;50.070;8.436;2024-01-30T03:04:36;101353.28;;;1.35;100.00
40730;BME280;26418;50.070;8.436;2024-01-30T03:07:01;101350.81;;;1.33;100.00
40730;BME280;26418;50.070;8.436;2024-01-30T03:09:27;101356.34;;;1.32;100.00
40730;BME280;26418;50.070;8.436;2024-01-30T03:11:52;101355.91;;;1.28;100.00
40730;BME280;26418;50.070;8.436;2024-01-30T03:14:18;101354.50;;;1.25;100.00
40730;BME280;26418;50.070;8.436;2024-01-30T03:16:43;101349.97;;;1.19;100.00
40730;BME280;26418;50.070;8.436;2024-01-30T03:19:09;101342.78;;;1.13;100.00
40730;BME280;26418;50.070;8.436;2024-01-30T03:21:34;101344.63;;;1.13;100.00
40730;BME280;26418;50.070;8.436;2024-01-30T03:24:00;101351.56;;;1.07;100.00
40730;BME280;26418;50.070;8.436;2024-01-30T03:26:26;101337.81;;;0.97;100.00
40730;BME280;26418;50.070;8.436;2024-01-30T03:28:52;101357.91;;;1.06;100.00
40730;BME280;26418;50.070;8.436;2024-01-30T03:31:17;101355.06;;;1.07;100.00
40730;BME280;26418;50.070;8.436;2024-01-30T03:33:43;101349.75;;;1.14;100.00
40730;BME280;26418;50.070;8.436;2024-01-30T03:36:09;101360.63;;;1.19;100.00
40730;BME280;26418;50.070;8.436;2024-01-30T03:38:34;101354.28;;;1.20;100.00
40730;BME280;26418;50.070;8.436;2024-01-30T03:41:00;101353.03;;;1.16;100.00
40730;BME280;26418;50.070;8.436;2024-01-30T03:43:26;101337.03;;;1.03;100.00
40730;BME280;26418;50.070;8.436;2024-01-30T03:45:51;101363.69;;;1.16;100.00
40730;BME280;26418;50.070;8.436;2024-01-30T03:48:17;101349.75;;;1.14;100.00
40730;BME280;26418;50.070;8.436;2024-01-30T03:50:43;101362.25;;;1.14;100.00
40730;BME280;26418;50.070;8.436;2024-01-30T03:53:08;101350.97;;;1.12;100.00
40730;BME280;26418;50.070;8.436;2024-01-30T03:55:34;101355.88;;;1.08;100.00
40730;BME280;26418;50.070;8.436;2024-01-30T03:58:00;101354.25;;;1.07;100.00
40730;BME280;26418;50.070;8.436;2024-01-30T04:00:25;101352.59;;;1.06;100.00
40730;BME280;26418;50.070;8.436;2024-01-30T04:02:51;101354.25;;;1.07;100.00
40730;BME280;26418;50.070;8.436;2024-01-30T04:05:16;101351.56;;;1.07;100.00
40730;BME280;26418;50.070;8.436;2024-01-30T04:07:42;101332.72;;;1.02;100.00
40730;BME280;26418;50.070;8.436;2024-01-30T04:10:09;101347.28;;;0.99;100.00
40730;BME280;26418;50.070;8.436;2024-01-30T04:12:35;101335.16;;;0.97;100.00
40730;BME280;26418;50.070;8.436;2024-01-30T04:15:01;101354.66;;;1.04;100.00
40730;BME280;26418;50.070;8.436;2024-01-30T04:17:27;101346.44;;;1.05;100.00
40730;BME280;26418;50.070;8.436;2024-01-30T04:19:54;101350.97;;;1.05;100.00
40730;BME280;26418;50.070;8.436;2024-01-30T04:22:20;101342.34;;;1.03;100.00
40730;BME280;26418;50.070;8.436;2024-01-30T04:24:46;101342.34;;;1.03;100.00
40730;BME280;26418;50.070;8.436;2024-01-30T04:27:11;101337.22;;;1.01;100.00
40730;BME280;26418;50.070;8.436;2024-01-30T04:29:37;101341.13;;;1.05;100.00
40730;BME280;26418;50.070;8.436;2024-01-30T04:32:03;101331.06;;;1.01;100.00
40730;BME280;26418;50.070;8.436;2024-01-30T04:34:29;101338.03;;;1.02;100.00
40730;BME280;26418;50.070;8.436;2024-01-30T04:36:54;101341.72;;;1.01;100.00
40730;BME280;26418;50.070;8.436;2024-01-30T04:39:20;101352.59;;;0.99;100.00
40730;BME280;26418;50.070;8.436;2024-01-30T04:41:45;101343.13;;;0.97;100.00
40730;BME280;26418;50.070;8.436;2024-01-30T04:44:11;101345.19;;;1.01;100.00
40730;BME280;26418;50.070;8.436;2024-01-30T04:46:37;101344.00;;;1.04;100.00
40730;BME280;26418;50.070;8.436;2024-01-30T04:49:02;101342.13;;;0.98;100.00
40730;BME280;26418;50.070;8.436;2024-01-30T04:51:28;101347.44;;;0.98;100.00
40730;BME280;26418;50.070;8.436;2024-01-30T04:53:55;101350.53;;;1.01;100.00
40730;BME280;26418;50.070;8.436;2024-01-30T04:56:20;101354.25;;;1.00;100.00
40730;BME280;26418;50.070;8.436;2024-01-30T04:58:46;101360.38;;;1.01;100.00
40730;BME280;26418;50.070;8.436;2024-01-30T05:01:15;101355.06;;;1.01;100.00
40730;BME280;26418;50.070;8.436;2024-01-30T05:03:41;101358.72;;;1.00;100.00
40730;BME280;26418;50.070;8.436;2024-01-30T05:06:06;101363.25;;;0.99;100.00
40730;BME280;26418;50.070;8.436;2024-01-30T05:08:32;101361.59;;;0.98;100.00
40730;BME280;26418;50.070;8.436;2024-01-30T05:11:00;101343.75;;;0.85;100.00
40730;BME280;26418;50.070;8.436;2024-01-30T05:13:26;101358.31;;;0.96;100.00
40730;BME280;26418;50.070;8.436;2024-01-30T05:15:52;101355.44;;;0.91;100.00
40730;BME280;26418;50.070;8.436;2024-01-30T05:18:17;101360.34;;;0.94;100.00
40730;BME280;26418;50.070;8.436;2024-01-30T05:20:43;101367.56;;;1.00;100.00
40730;BME280;26418;50.070;8.436;2024-01-30T05:23:09;101356.03;;;0.93;100.00
40730;BME280;26418;50.070;8.436;2024-01-30T05:25:34;101355.44;;;0.91;100.00
40730;BME280;26418;50.070;8.436;2024-01-30T05:28:00;101359.50;;;0.87;100.00
40730;BME280;26418;50.070;8.436;2024-01-30T05:30:25;101365.84;;;0.86;100.00
40730;BME280;26418;50.070;8.436;2024-01-30T05:32:51;101359.47;;;0.80;100.00
40730;BME280;26418;50.070;8.436;2024-01-30T05:35:17;101368.09;;;0.82;100.00
40730;BME280;26418;50.070;8.436;2024-01-30T05:37:43;101356.59;;;0.75;100.00
40730;BME280;26418;50.070;8.436;2024-01-30T05:40:09;101371.56;;;0.76;100.00
40730;BME280;26418;50.070;8.436;2024-01-30T05:42:35;101375.03;;;0.70;100.00
40730;BME280;26418;50.070;8.436;2024-01-30T05:45:00;101369.03;;;0.61;100.00
40730;BME280;26418;50.070;8.436;2024-01-30T05:47:26;101367.16;;;0.55;100.00
40730;BME280;26418;50.070;8.436;2024-01-30T05:49:51;101369.41;;;0.51;100.00
40730;BME280;26418;50.070;8.436;2024-01-30T05:52:17;101374.53;;;0.53;100.00
40730;BME280;26418;50.070;8.436;2024-01-30T05:54:44;101370.81;;;0.47;100.00
40730;BME280;26418;50.070;8.436;2024-01-30T05:57:09;101375.38;;;0.53;100.00
40730;BME280;26418;50.070;8.436;2024-01-30T05:59:35;101373.31;;;0.55;100.00
40730;BME280;26418;50.070;8.436;2024-01-30T06:02:01;101368.81;;;0.56;100.00
40730;BME280;26418;50.070;8.436;2024-01-30T06:04:27;101380.91;;;0.58;100.00
40730;BME280;26418;50.070;8.436;2024-01-30T06:06:52;101378.63;;;0.55;100.00
40730;BME280;26418;50.070;8.436;2024-01-30T06:09:18;101380.69;;;0.60;100.00
40730;BME280;26418;50.070;8.436;2024-01-30T06:11:43;101378.47;;;0.63;100.00
40730;BME280;26418;50.070;8.436;2024-01-30T06:14:09;101371.28;;;0.57;100.00
40730;BME280;26418;50.070;8.436;2024-01-30T06:16:34;101381.97;;;0.64;100.00
40730;BME280;26418;50.070;8.436;2024-01-30T06:19:00;101381.16;;;0.70;100.00
40730;BME280;26418;50.070;8.436;2024-01-30T06:21:25;101364.75;;;0.67;100.00
40730;BME280;26418;50.070;8.436;2024-01-30T06:23:51;101382.81;;;0.71;100.00
40730;BME280;26418;50.070;8.436;2024-01-30T06:26:16;101369.66;;;0.63;100.00
40730;BME280;26418;50.070;8.436;2024-01-30T06:28:42;101369.06;;;0.68;100.00
40730;BME280;26418;50.070;8.436;2024-01-30T06:31:08;101371.16;;;0.72;100.00
40730;BME280;26418;50.070;8.436;2024-01-30T06:33:33;101364.13;;;0.65;100.00
40730;BME280;26418;50.070;8.436;2024-01-30T06:35:59;101367.81;;;0.63;100.00
40730;BME280;26418;50.070;8.436;2024-01-30T06:38:24;101380.78;;;0.73;100.00
40730;BME280;26418;50.070;8.436;2024-01-30T06:40:50;101372.19;;;0.78;100.00
40730;BME280;26418;50.070;8.436;2024-01-30T06:43:15;101375.47;;;0.80;100.00
40730;BME280;26418;50.070;8.436;2024-01-30T06:45:41;101381.44;;;0.89;100.00
40730;BME280;26418;50.070;8.436;2024-01-30T06:48:08;101368.63;;;1.19;100.00
40730;BME280;26418;50.070;8.436;2024-01-30T06:50:33;101383.66;;;1.67;100.00
40730;BME280;26418;50.070;8.436;2024-01-30T06:52:59;101377.69;;;2.06;100.00
40730;BME280;26418;50.070;8.436;2024-01-30T06:55:25;101374.75;;;2.47;100.00
40730;BME280;26418;50.070;8.436;2024-01-30T06:57:50;101380.56;;;2.83;100.00
40730;BME280;26418;50.070;8.436;2024-01-30T07:00:16;101381.25;;;3.10;100.00
40730;BME280;26418;50.070;8.436;2024-01-30T07:02:42;101383.38;;;3.34;100.00
40730;BME280;26418;50.070;8.436;2024-01-30T07:05:07;101384.19;;;3.34;100.00
40730;BME280;26418;50.070;8.436;2024-01-30T07:07:33;101384.94;;;3.16;100.00
40730;BME280;26418;50.070;8.436;2024-01-30T07:09:58;101370.28;;;2.87;100.00
40730;BME280;26418;50.070;8.436;2024-01-30T07:12:24;101376.94;;;2.64;100.00
40730;BME280;26418;50.070;8.436;2024-01-30T07:14:51;101379.06;;;2.42;100.00
40730;BME280;26418;50.070;8.436;2024-01-30T07:17:16;101372.53;;;2.24;100.00
40730;BME280;26418;50.070;8.436;2024-01-30T07:19:42;101368.63;;;2.20;100.00
40730;BME280;26418;50.070;8.436;2024-01-30T07:22:08;101366.53;;;2.42;100.00
40730;BME280;26418;50.070;8.436;2024-01-30T07:24:34;101373.47;;;2.57;100.00
40730;BME280;26418;50.070;8.436;2024-01-30T07:26:59;101382.09;;;2.52;100.00
40730;BME280;26418;50.070;8.436;2024-01-30T07:29:25;101378.63;;;2.51;100.00
40730;BME280;26418;50.070;8.436;2024-01-30T07:31:51;101381.47;;;2.57;100.00
40730;BME280;26418;50.070;8.436;2024-01-30T07:34:16;101366.50;;;2.49;100.00
40730;BME280;26418;50.070;8.436;2024-01-30T07:36:42;101390.94;;;2.46;100.00
40730;BME280;26418;50.070;8.436;2024-01-30T07:39:08;101383.59;;;2.34;100.00
40730;BME280;26418;50.070;8.436;2024-01-30T07:41:33;101377.66;;;2.26;100.00
40730;BME280;26418;50.070;8.436;2024-01-30T07:43:59;101379.31;;;2.20;100.00
40730;BME280;26418;50.070;8.436;2024-01-30T07:46:24;101383.84;;;2.13;100.00
40730;BME280;26418;50.070;8.436;2024-01-30T07:48:51;101379.13;;;2.08;100.00
40730;BME280;26418;50.070;8.436;2024-01-30T07:51:17;101380.97;;;2.08;100.00
40730;BME280;26418;50.070;8.436;2024-01-30T07:53:42;101389.38;;;2.04;100.00
40730;BME280;26418;50.070;8.436;2024-01-30T07:56:08;101379.56;;;2.05;100.00
40730;BME280;26418;50.070;8.436;2024-01-30T07:58:33;101381.78;;;2.08;100.00
40730;BME280;26418;50.070;8.436;2024-01-30T08:00:59;101383.84;;;2.06;100.00
40730;BME280;26418;50.070;8.436;2024-01-30T08:03:26;101387.75;;;2.10;100.00
40730;BME280;26418;50.070;8.436;2024-01-30T08:05:51;101402.72;;;2.11;100.00
40730;BME280;26418;50.070;8.436;2024-01-30T08:08:17;101400.69;;;2.13;100.00
40730;BME280;26418;50.070;8.436;2024-01-30T08:10:43;101395.34;;;2.13;100.00
40730;BME280;26418;50.070;8.436;2024-01-30T08:13:08;101407.25;;;2.17;100.00
40730;BME280;26418;50.070;8.436;2024-01-30T08:15:34;101412.16;;;2.20;100.00
40730;BME280;26418;50.070;8.436;2024-01-30T08:18:00;101413.19;;;2.26;100.00
40730;BME280;26418;50.070;8.436;2024-01-30T08:20:26;101398.59;;;2.29;100.00
40730;BME280;26418;50.070;8.436;2024-01-30T08:22:52;101404.13;;;2.41;100.00
40730;BME280;26418;50.070;8.436;2024-01-30T08:25:17;101392.41;;;2.42;100.00
40730;BME280;26418;50.070;8.436;2024-01-30T08:27:44;101397.09;;;2.60;100.00
40730;BME280;26418;50.070;8.436;2024-01-30T08:30:10;101382.06;;;2.65;100.00
40730;BME280;26418;50.070;8.436;2024-01-30T08:32:36;101400.31;;;2.82;100.00
40730;BME280;26418;50.070;8.436;2024-01-30T08:35:01;101398.19;;;2.91;100.00
40730;BME280;26418;50.070;8.436;2024-01-30T08:37:31;101400.22;;;2.95;100.00
40730;BME280;26418;50.070;8.436;2024-01-30T08:39:57;101397.94;;;3.06;100.00
40730;BME280;26418;50.070;8.436;2024-01-30T08:42:22;101399.97;;;3.10;100.00
40730;BME280;26418;50.070;8.436;2024-01-30T08:44:51;101390.50;;;3.14;100.00
40730;BME280;26418;50.070;8.436;2024-01-30T08:47:18;101397.56;;;3.34;100.00
40730;BME280;26418;50.070;8.436;2024-01-30T08:49:44;101407.31;;;3.54;100.00
40730;BME280;26418;50.070;8.436;2024-01-30T08:52:12;101412.63;;;3.60;100.00
40730;BME280;26418;50.070;8.436;2024-01-30T08:54:38;101397.81;;;3.58;100.00
40730;BME280;26418;50.070;8.436;2024-01-30T08:57:04;101405.41;;;3.61;100.00
40730;BME280;26418;50.070;8.436;2024-01-30T08:59:30;101394.19;;;3.52;100.00
40730;BME280;26418;50.070;8.436;2024-01-30T09:01:55;101397.69;;;3.46;100.00
40730;BME280;26418;50.070;8.436;2024-01-30T09:04:23;101395.66;;;3.41;100.00
40730;BME280;26418;50.070;8.436;2024-01-30T09:06:49;101401.25;;;3.40;100.00
40730;BME280;26418;50.070;8.436;2024-01-30T09:09:15;101396.13;;;3.38;100.00
40730;BME280;26418;50.070;8.436;2024-01-30T09:11:41;101404.06;;;3.45;100.00
40730;BME280;26418;50.070;8.436;2024-01-30T09:14:06;101404.47;;;3.49;100.00
40730;BME280;26418;50.070;8.436;2024-01-30T09:16:32;101413.28;;;3.56;100.00
40730;BME280;26418;50.070;8.436;2024-01-30T09:18:58;101416.72;;;3.63;100.00
40730;BME280;26418;50.070;8.436;2024-01-30T09:21:23;101421.81;;;3.71;100.00
40730;BME280;26418;50.070;8.436;2024-01-30T09:23:49;101418.25;;;3.77;100.00
40730;BME280;26418;50.070;8.436;2024-01-30T09:26:14;101413.69;;;3.85;100.00
40730;BME280;26418;50.070;8.436;2024-01-30T09:28:40;101417.56;;;3.89;100.00
40730;BME280;26418;50.070;8.436;2024-01-30T09:31:11;101421.28;;;3.88;100.00
40730;BME280;26418;50.070;8.436;2024-01-30T09:33:36;101427.28;;;3.83;100.00
40730;BME280;26418;50.070;8.436;2024-01-30T09:36:02;101420.81;;;3.91;100.00
40730;BME280;26418;50.070;8.436;2024-01-30T09:38:28;101418.66;;;4.06;100.00
40730;BME280;26418;50.070;8.436;2024-01-30T09:41:03;101417.91;;;4.18;100.00
40730;BME280;26418;50.070;8.436;2024-01-30T09:43:33;101418.84;;;4.30;100.00
40730;BME280;26418;50.070;8.436;2024-01-30T09:46:02;101417.22;;;4.29;100.00
40730;BME280;26418;50.070;8.436;2024-01-30T09:48:29;101426.41;;;4.33;100.00
40730;BME280;26418;50.070;8.436;2024-01-30T09:50:57;101421.38;;;4.44;100.00
40730;BME280;26418;50.070;8.436;2024-01-30T09:53:23;101418.78;;;4.55;100.00
40730;BME280;26418;50.070;8.436;2024-01-30T09:55:50;101422.22;;;4.63;100.00
40730;BME280;26418;50.070;8.436;2024-01-30T09:58:16;101422.66;;;4.60;100.00
40730;BME280;26418;50.070;8.436;2024-01-30T10:00:41;101422.44;;;4.61;100.00
40730;BME280;26418;50.070;8.436;2024-01-30T10:03:08;101425.56;;;4.58;100.00
40730;BME280;26418;50.070;8.436;2024-01-30T10:05:35;101427.28;;;4.52;100.00
40730;BME280;26418;50.070;8.436;2024-01-30T10:08:06;101420.28;;;4.51;100.00
40730;BME280;26418;50.070;8.436;2024-01-30T10:10:33;101427.06;;;4.54;100.00
40730;BME280;26418;50.070;8.436;2024-01-30T10:13:00;101424.38;;;4.54;100.00
40730;BME280;26418;50.070;8.436;2024-01-30T10:15:28;101420.44;;;4.56;100.00
40730;BME280;26418;50.070;8.436;2024-01-30T10:17:53;101421.63;;;4.61;100.00
40730;BME280;26418;50.070;8.436;2024-01-30T10:20:18;101410.91;;;4.61;100.00
40730;BME280;26418;50.070;8.436;2024-01-30T10:22:45;101411.19;;;4.71;100.00
40730;BME280;26418;50.070;8.436;2024-01-30T10:25:11;101403.69;;;4.80;100.00
40730;BME280;26418;50.070;8.436;2024-01-30T10:27:39;101412.47;;;4.87;100.00
40730;BME280;26418;50.070;8.436;2024-01-30T10:30:05;101412.38;;;4.94;100.00
40730;BME280;26418;50.070;8.436;2024-01-30T10:32:31;101399.34;;;4.97;100.00
40730;BME280;26418;50.070;8.436;2024-01-30T10:34:56;101401.25;;;5.09;100.00
40730;BME280;26418;50.070;8.436;2024-01-30T10:37:25;101398.59;;;5.20;100.00
40730;BME280;26418;50.070;8.436;2024-01-30T10:39:53;101406.41;;;5.41;100.00
40730;BME280;26418;50.070;8.436;2024-01-30T10:42:19;101409.47;;;5.56;100.00
40730;BME280;26418;50.070;8.436;2024-01-30T10:44:59;101405.63;;;5.76;100.00
40730;BME280;26418;50.070;8.436;2024-01-30T10:47:27;101403.22;;;5.86;99.63
40730;BME280;26418;50.070;8.436;2024-01-30T10:49:54;101412.84;;;6.06;99.11
40730;BME280;26418;50.070;8.436;2024-01-30T10:52:23;101407.72;;;6.16;98.25
40730;BME280;26418;50.070;8.436;2024-01-30T10:54:51;101408.16;;;6.25;97.23
40730;BME280;26418;50.070;8.436;2024-01-30T10:57:17;101405.56;;;6.30;96.29
40730;BME280;26418;50.070;8.436;2024-01-30T10:59:43;101398.78;;;6.39;96.73
40730;BME280;26418;50.070;8.436;2024-01-30T11:02:11;101401.72;;;6.50;96.13
40730;BME280;26418;50.070;8.436;2024-01-30T11:04:37;101402.28;;;6.64;96.88
40730;BME280;26418;50.070;8.436;2024-01-30T11:07:17;101395.13;;;6.69;92.83
40730;BME280;26418;50.070;8.436;2024-01-30T11:12:27;101408.16;;;6.89;91.70
40730;BME280;26418;50.070;8.436;2024-01-30T11:17:43;101398.63;;;7.11;90.74
40730;BME280;26418;50.070;8.436;2024-01-30T11:20:31;101401.72;;;7.19;90.26
40730;BME280;26418;50.070;8.436;2024-01-30T11:23:01;101398.25;;;7.36;90.52
40730;BME280;26418;50.070;8.436;2024-01-30T11:25:31;101385.47;;;7.43;89.56
40730;BME280;26418;50.070;8.436;2024-01-30T11:27:57;101395.22;;;7.61;87.23
40730;BME280;26418;50.070;8.436;2024-01-30T11:30:30;101406.56;;;7.63;85.58
40730;BME280;26418;50.070;8.436;2024-01-30T11:33:10;101387.13;;;7.61;85.74
40730;BME280;26418;50.070;8.436;2024-01-30T11:35:43;101391.59;;;7.72;85.79
40730;BME280;26418;50.070;8.436;2024-01-30T11:38:10;101368.47;;;7.71;85.07
40730;BME280;26418;50.070;8.436;2024-01-30T11:40:40;101379.03;;;7.78;84.66
40730;BME280;26418;50.070;8.436;2024-01-30T11:43:07;101381.66;;;7.73;84.29
40730;BME280;26418;50.070;8.436;2024-01-30T11:45:34;101380.84;;;7.55;82.71
40730;BME280;26418;50.070;8.436;2024-01-30T11:48:02;101368.66;;;7.36;83.06
40730;BME280;26418;50.070;8.436;2024-01-30T11:50:29;101381.25;;;7.18;83.68
40730;BME280;26418;50.070;8.436;2024-01-30T11:52:55;101368.69;;;7.07;84.86
40730;BME280;26418;50.070;8.436;2024-01-30T11:55:23;101368.63;;;6.90;84.93
40730;BME280;26418;50.070;8.436;2024-01-30T11:57:48;101375.22;;;6.82;85.70
40730;BME280;26418;50.070;8.436;2024-01-30T12:00:15;101378.97;;;6.81;86.64
40730;BME280;26418;50.070;8.436;2024-01-30T12:02:41;101375.59;;;6.74;86.27
40730;BME280;26418;50.070;8.436;2024-01-30T12:05:07;101377.13;;;6.70;86.98
40730;BME280;26418;50.070;8.436;2024-01-30T12:07:33;101371.66;;;6.65;87.77
40730;BME280;26418;50.070;8.436;2024-01-30T12:09:59;101370.59;;;6.66;88.19
40730;BME280;26418;50.070;8.436;2024-01-30T12:12:26;101377.63;;;6.67;88.19
40730;BME280;26418;50.070;8.436;2024-01-30T12:14:52;101366.50;;;6.75;88.20
40730;BME280;26418;50.070;8.436;2024-01-30T12:17:32;101361.19;;;6.80;88.32
40730;BME280;26418;50.070;8.436;2024-01-30T12:25:12;101354.78;;;7.27;86.31
40730;BME280;26418;50.070;8.436;2024-01-30T12:27:39;101353.16;;;7.43;86.16
40730;BME280;26418;50.070;8.436;2024-01-30T12:30:09;101340.38;;;7.50;85.19
40730;BME280;26418;50.070;8.436;2024-01-30T12:32:43;101348.88;;;7.76;84.71
40730;BME280;26418;50.070;8.436;2024-01-30T12:35:13;101349.00;;;7.86;81.83
40730;BME280;26418;50.070;8.436;2024-01-30T12:37:39;101354.56;;;7.97;81.12
40730;BME280;26418;50.070;8.436;2024-01-30T12:40:07;101351.91;;;8.02;80.74
40730;BME280;26418;50.070;8.436;2024-01-30T12:42:33;101349.00;;;8.03;80.20
40730;BME280;26418;50.070;8.436;2024-01-30T12:44:58;101346.31;;;8.03;80.28
40730;BME280;26418;50.070;8.436;2024-01-30T12:47:24;101332.84;;;8.03;80.47
40730;BME280;26418;50.070;8.436;2024-01-30T12:49:50;101339.00;;;8.21;81.15
40730;BME280;26418;50.070;8.436;2024-01-30T12:52:19;101339.19;;;8.37;80.62
40730;BME280;26418;50.070;8.436;2024-01-30T12:54:44;101346.19;;;8.55;81.09
40730;BME280;26418;50.070;8.436;2024-01-30T12:57:10;101328.53;;;8.69;79.57
40730;BME280;26418;50.070;8.436;2024-01-30T12:59:36;101322.34;;;8.69;78.69